sensor_id;sensor_type;location;lat;lon;timestamp;P1;durP1;ratioP1;P2;durP2;ratioP2
41512;SDS011;27244;59.940;30.280;2023-03-22T00:01:48;7.30;;;6.60;;
41512;SDS011;27244;59.940;30.280;2023-03-22T00:04:17;7.35;;;6.60;;
41512;SDS011;27244;59.940;30.280;2023-03-22T00:06:44;7.82;;;6.70;;
41512;SDS011;27244;59.940;30.280;2023-03-22T00:09:13;7.43;;;6.72;;
41512;SDS011;27244;59.940;30.280;2023-03-22T00:11:40;7.10;;;6.38;;
41512;SDS011;27244;59.940;30.280;2023-03-22T00:14:06;14.50;;;6.55;;
41512;SDS011;27244;59.940;30.280;2023-03-22T00:16:34;6.25;;;5.03;;
41512;SDS011;27244;59.940;30.280;2023-03-22T00:19:00;6.57;;;4.85;;
41512;SDS011;27244;59.940;30.280;2023-03-22T00:21:27;5.90;;;4.60;;
41512;SDS011;27244;59.940;30.280;2023-03-22T00:23:54;5.57;;;4.50;;
41512;SDS011;27244;59.940;30.280;2023-03-22T00:26:22;6.75;;;4.15;;
41512;SDS011;27244;59.940;30.280;2023-03-22T00:28:49;4.53;;;3.72;;
41512;SDS011;27244;59.940;30.280;2023-03-22T00:31:16;8.00;;;3.83;;
41512;SDS011;27244;59.940;30.280;2023-03-22T00:33:44;4.97;;;4.32;;
41512;SDS011;27244;59.940;30.280;2023-03-22T00:36:11;6.05;;;5.45;;
41512;SDS011;27244;59.940;30.280;2023-03-22T00:38:38;4.10;;;3.60;;
41512;SDS011;27244;59.940;30.280;2023-03-22T00:41:06;3.97;;;3.58;;
41512;SDS011;27244;59.940;30.280;2023-03-22T00:43:35;4.85;;;3.42;;
41512;SDS011;27244;59.940;30.280;2023-03-22T00:46:02;3.88;;;3.25;;
41512;SDS011;27244;59.940;30.280;2023-03-22T00:48:29;3.97;;;2.55;;
41512;SDS011;27244;59.940;30.280;2023-03-22T00:50:56;3.00;;;2.58;;
41512;SDS011;27244;59.940;30.280;2023-03-22T00:53:23;3.00;;;2.70;;
41512;SDS011;27244;59.940;30.280;2023-03-22T00:55:53;4.25;;;3.65;;
41512;SDS011;27244;59.940;30.280;2023-03-22T00:58:20;3.72;;;3.33;;
41512;SDS011;27244;59.940;30.280;2023-03-22T01:00:48;4.05;;;2.58;;
41512;SDS011;27244;59.940;30.280;2023-03-22T01:03:16;2.90;;;2.50;;
41512;SDS011;27244;59.940;30.280;2023-03-22T01:05:43;2.92;;;2.60;;
41512;SDS011;27244;59.940;30.280;2023-03-22T01:08:11;3.40;;;2.20;;
41512;SDS011;27244;59.940;30.280;2023-03-22T01:10:39;2.97;;;2.30;;
41512;SDS011;27244;59.940;30.280;2023-03-22T01:13:07;2.30;;;2.10;;
41512;SDS011;27244;59.940;30.280;2023-03-22T01:15:35;2.40;;;2.00;;
41512;SDS011;27244;59.940;30.280;2023-03-22T01:18:04;2.60;;;1.67;;
41512;SDS011;27244;59.940;30.280;2023-03-22T01:20:32;1.70;;;1.50;;
41512;SDS011;27244;59.940;30.280;2023-03-22T01:23:00;2.80;;;1.60;;
41512;SDS011;27244;59.940;30.280;2023-03-22T01:25:27;2.28;;;2.05;;
41512;SDS011;27244;59.940;30.280;2023-03-22T01:27:54;2.03;;;1.65;;
41512;SDS011;27244;59.940;30.280;2023-03-22T01:30:20;1.67;;;1.50;;
41512;SDS011;27244;59.940;30.280;2023-03-22T01:32:47;1.85;;;1.20;;
41512;SDS011;27244;59.940;30.280;2023-03-22T01:35:17;1.75;;;1.50;;
41512;SDS011;27244;59.940;30.280;2023-03-22T01:37:44;2.17;;;1.70;;
41512;SDS011;27244;59.940;30.280;2023-03-22T01:40:13;1.40;;;1.30;;
41512;SDS011;27244;59.940;30.280;2023-03-22T01:42:40;1.80;;;1.33;;
41512;SDS011;27244;59.940;30.280;2023-03-22T01:48:07;1.77;;;1.27;;
41512;SDS011;27244;59.940;30.280;2023-03-22T01:50:41;1.25;;;1.08;;
41512;SDS011;27244;59.940;30.280;2023-03-22T01:53:14;1.52;;;1.20;;
41512;SDS011;27244;59.940;30.280;2023-03-22T01:55:44;1.95;;;1.23;;
41512;SDS011;27244;59.940;30.280;2023-03-22T01:58:18;1.73;;;1.20;;
41512;SDS011;27244;59.940;30.280;2023-03-22T02:00:50;1.48;;;1.00;;
41512;SDS011;27244;59.940;30.280;2023-03-22T02:03:40;1.05;;;0.95;;
41512;SDS011;27244;59.940;30.280;2023-03-22T02:06:15;2.38;;;0.95;;
41512;SDS011;27244;59.940;30.280;2023-03-22T02:08:42;1.63;;;0.90;;
41512;SDS011;27244;59.940;30.280;2023-03-22T02:11:16;1.80;;;0.95;;
41512;SDS011;27244;59.940;30.280;2023-03-22T02:13:54;1.15;;;0.90;;
41512;SDS011;27244;59.940;30.280;2023-03-22T02:19:42;1.48;;;0.82;;
41512;SDS011;27244;59.940;30.280;2023-03-22T02:25:28;1.05;;;0.80;;
41512;SDS011;27244;59.940;30.280;2023-03-22T02:28:12;2.40;;;0.93;;
41512;SDS011;27244;59.940;30.280;2023-03-22T02:39:50;1.08;;;0.75;;
41512;SDS011;27244;59.940;30.280;2023-03-22T02:42:28;1.50;;;0.82;;
41512;SDS011;27244;59.940;30.280;2023-03-22T02:45:06;0.65;;;0.57;;
41512;SDS011;27244;59.940;30.280;2023-03-22T02:47:39;0.80;;;0.70;;
41512;SDS011;27244;59.940;30.280;2023-03-22T02:50:13;1.73;;;0.90;;
41512;SDS011;27244;59.940;30.280;2023-03-22T02:52:48;3.38;;;0.60;;
41512;SDS011;27244;59.940;30.280;2023-03-22T02:55:23;1.10;;;0.70;;
41512;SDS011;27244;59.940;30.280;2023-03-22T02:57:55;1.42;;;0.60;;
41512;SDS011;27244;59.940;30.280;2023-03-22T03:00:28;0.88;;;0.60;;
41512;SDS011;27244;59.940;30.280;2023-03-22T03:02:58;0.65;;;0.60;;
41512;SDS011;27244;59.940;30.280;2023-03-22T03:05:35;2.05;;;0.50;;
41512;SDS011;27244;59.940;30.280;2023-03-22T03:08:07;0.68;;;0.57;;
41512;SDS011;27244;59.940;30.280;2023-03-22T03:10:40;0.57;;;0.45;;
41512;SDS011;27244;59.940;30.280;2023-03-22T03:13:09;0.52;;;0.50;;
41512;SDS011;27244;59.940;30.280;2023-03-22T03:15:40;2.05;;;0.57;;
41512;SDS011;27244;59.940;30.280;2023-03-22T03:18:17;1.70;;;0.60;;
41512;SDS011;27244;59.940;30.280;2023-03-22T03:20:55;1.75;;;0.77;;
41512;SDS011;27244;59.940;30.280;2023-03-22T03:23:31;1.15;;;0.57;;
41512;SDS011;27244;59.940;30.280;2023-03-22T03:26:04;0.65;;;0.40;;
41512;SDS011;27244;59.940;30.280;2023-03-22T03:28:37;0.60;;;0.40;;
41512;SDS011;27244;59.940;30.280;2023-03-22T03:31:14;3.08;;;0.70;;
41512;SDS011;27244;59.940;30.280;2023-03-22T03:33:55;0.68;;;0.50;;
41512;SDS011;27244;59.940;30.280;2023-03-22T03:36:30;0.65;;;0.55;;
41512;SDS011;27244;59.940;30.280;2023-03-22T03:39:02;0.43;;;0.30;;
41512;SDS011;27244;59.940;30.280;2023-03-22T03:41:34;0.77;;;0.50;;
41512;SDS011;27244;59.940;30.280;2023-03-22T03:44:02;0.55;;;0.50;;
41512;SDS011;27244;59.940;30.280;2023-03-22T03:46:30;0.40;;;0.30;;
41512;SDS011;27244;59.940;30.280;2023-03-22T03:48:57;1.58;;;0.40;;
41512;SDS011;27244;59.940;30.280;2023-03-22T03:51:25;1.17;;;0.80;;
41512;SDS011;27244;59.940;30.280;2023-03-22T03:53:53;0.93;;;0.40;;
41512;SDS011;27244;59.940;30.280;2023-03-22T03:56:21;1.30;;;0.28;;
41512;SDS011;27244;59.940;30.280;2023-03-22T03:58:53;2.00;;;0.47;;
41512;SDS011;27244;59.940;30.280;2023-03-22T04:01:20;1.08;;;0.40;;
41512;SDS011;27244;59.940;30.280;2023-03-22T04:04:04;0.57;;;0.38;;
41512;SDS011;27244;59.940;30.280;2023-03-22T04:06:40;0.57;;;0.30;;
41512;SDS011;27244;59.940;30.280;2023-03-22T04:11:43;0.40;;;0.30;;
41512;SDS011;27244;59.940;30.280;2023-03-22T04:14:12;0.80;;;0.45;;
41512;SDS011;27244;59.940;30.280;2023-03-22T04:16:40;0.80;;;0.40;;
41512;SDS011;27244;59.940;30.280;2023-03-22T04:19:10;1.02;;;0.47;;
41512;SDS011;27244;59.940;30.280;2023-03-22T04:21:37;0.80;;;0.60;;
41512;SDS011;27244;59.940;30.280;2023-03-22T04:24:05;0.77;;;0.63;;
41512;SDS011;27244;59.940;30.280;2023-03-22T04:26:35;1.03;;;0.57;;
41512;SDS011;27244;59.940;30.280;2023-03-22T04:29:18;3.97;;;0.77;;
41512;SDS011;27244;59.940;30.280;2023-03-22T04:31:49;1.55;;;0.60;;
41512;SDS011;27244;59.940;30.280;2023-03-22T04:34:37;4.68;;;0.60;;
41512;SDS011;27244;59.940;30.280;2023-03-22T04:37:09;3.15;;;0.60;;
41512;SDS011;27244;59.940;30.280;2023-03-22T04:40:07;8.70;;;0.60;;
41512;SDS011;27244;59.940;30.280;2023-03-22T04:42:43;0.88;;;0.52;;
41512;SDS011;27244;59.940;30.280;2023-03-22T04:45:16;2.00;;;0.60;;
41512;SDS011;27244;59.940;30.280;2023-03-22T04:47:48;1.45;;;0.55;;
41512;SDS011;27244;59.940;30.280;2023-03-22T04:50:16;3.00;;;0.80;;
41512;SDS011;27244;59.940;30.280;2023-03-22T04:52:50;1.77;;;0.60;;
41512;SDS011;27244;59.940;30.280;2023-03-22T04:55:17;0.45;;;0.40;;
41512;SDS011;27244;59.940;30.280;2023-03-22T04:57:44;1.88;;;0.50;;
41512;SDS011;27244;59.940;30.280;2023-03-22T05:00:12;3.30;;;1.25;;
41512;SDS011;27244;59.940;30.280;2023-03-22T05:02:42;2.15;;;0.50;;
41512;SDS011;27244;59.940;30.280;2023-03-22T05:05:18;0.77;;;0.52;;
41512;SDS011;27244;59.940;30.280;2023-03-22T05:07:47;1.30;;;0.80;;
41512;SDS011;27244;59.940;30.280;2023-03-22T05:10:17;0.93;;;0.73;;
41512;SDS011;27244;59.940;30.280;2023-03-22T05:12:47;3.05;;;0.43;;
41512;SDS011;27244;59.940;30.280;2023-03-22T05:15:21;1.52;;;0.50;;
41512;SDS011;27244;59.940;30.280;2023-03-22T05:17:51;1.38;;;0.50;;
41512;SDS011;27244;59.940;30.280;2023-03-22T05:20:20;0.73;;;0.45;;
41512;SDS011;27244;59.940;30.280;2023-03-22T05:22:58;1.48;;;0.82;;
41512;SDS011;27244;59.940;30.280;2023-03-22T05:25:28;1.55;;;0.40;;
41512;SDS011;27244;59.940;30.280;2023-03-22T05:27:55;0.38;;;0.30;;
41512;SDS011;27244;59.940;30.280;2023-03-22T05:30:52;1.77;;;0.47;;
41512;SDS011;27244;59.940;30.280;2023-03-22T05:33:27;1.23;;;0.80;;
41512;SDS011;27244;59.940;30.280;2023-03-22T05:35:55;2.15;;;0.88;;
41512;SDS011;27244;59.940;30.280;2023-03-22T05:38:24;2.72;;;0.63;;
41512;SDS011;27244;59.940;30.280;2023-03-22T05:40:55;0.98;;;0.47;;
41512;SDS011;27244;59.940;30.280;2023-03-22T05:43:22;1.30;;;0.70;;
41512;SDS011;27244;59.940;30.280;2023-03-22T05:45:49;2.20;;;0.70;;
41512;SDS011;27244;59.940;30.280;2023-03-22T05:48:35;0.85;;;0.52;;
41512;SDS011;27244;59.940;30.280;2023-03-22T05:51:04;2.13;;;0.70;;
41512;SDS011;27244;59.940;30.280;2023-03-22T05:53:32;2.20;;;0.95;;
41512;SDS011;27244;59.940;30.280;2023-03-22T05:56:12;1.20;;;0.80;;
41512;SDS011;27244;59.940;30.280;2023-03-22T05:58:42;1.52;;;0.73;;
41512;SDS011;27244;59.940;30.280;2023-03-22T06:01:16;1.33;;;0.50;;
41512;SDS011;27244;59.940;30.280;2023-03-22T06:03:46;1.33;;;0.60;;
41512;SDS011;27244;59.940;30.280;2023-03-22T06:06:32;2.90;;;1.20;;
41512;SDS011;27244;59.940;30.280;2023-03-22T06:09:08;1.38;;;0.88;;
41512;SDS011;27244;59.940;30.280;2023-03-22T06:11:36;1.10;;;0.80;;
41512;SDS011;27244;59.940;30.280;2023-03-22T06:14:04;2.03;;;0.80;;
41512;SDS011;27244;59.940;30.280;2023-03-22T06:16:49;3.65;;;0.70;;
41512;SDS011;27244;59.940;30.280;2023-03-22T06:19:17;0.90;;;0.68;;
41512;SDS011;27244;59.940;30.280;2023-03-22T06:21:46;1.35;;;1.00;;
41512;SDS011;27244;59.940;30.280;2023-03-22T06:24:15;1.27;;;0.73;;
41512;SDS011;27244;59.940;30.280;2023-03-22T06:26:41;1.88;;;1.00;;
41512;SDS011;27244;59.940;30.280;2023-03-22T06:29:08;2.03;;;0.85;;
41512;SDS011;27244;59.940;30.280;2023-03-22T06:31:36;6.97;;;1.83;;
41512;SDS011;27244;59.940;30.280;2023-03-22T06:34:05;1.48;;;0.95;;
41512;SDS011;27244;59.940;30.280;2023-03-22T06:36:38;1.73;;;1.17;;
41512;SDS011;27244;59.940;30.280;2023-03-22T06:39:10;2.15;;;1.50;;
41512;SDS011;27244;59.940;30.280;2023-03-22T06:41:40;2.67;;;1.60;;
41512;SDS011;27244;59.940;30.280;2023-03-22T06:44:07;4.00;;;1.60;;
41512;SDS011;27244;59.940;30.280;2023-03-22T06:46:51;2.20;;;1.38;;
41512;SDS011;27244;59.940;30.280;2023-03-22T06:49:37;2.65;;;1.60;;
41512;SDS011;27244;59.940;30.280;2023-03-22T06:52:05;3.00;;;1.60;;
41512;SDS011;27244;59.940;30.280;2023-03-22T06:54:33;8.20;;;1.80;;
41512;SDS011;27244;59.940;30.280;2023-03-22T06:57:00;5.68;;;1.60;;
41512;SDS011;27244;59.940;30.280;2023-03-22T06:59:27;6.50;;;1.30;;
41512;SDS011;27244;59.940;30.280;2023-03-22T07:01:54;2.72;;;1.52;;
41512;SDS011;27244;59.940;30.280;2023-03-22T07:04:22;2.35;;;1.60;;
41512;SDS011;27244;59.940;30.280;2023-03-22T07:06:50;4.30;;;1.50;;
41512;SDS011;27244;59.940;30.280;2023-03-22T07:09:18;2.45;;;1.67;;
41512;SDS011;27244;59.940;30.280;2023-03-22T07:11:47;2.67;;;1.40;;
41512;SDS011;27244;59.940;30.280;2023-03-22T07:14:14;2.88;;;1.52;;
41512;SDS011;27244;59.940;30.280;2023-03-22T07:16:55;5.43;;;1.25;;
41512;SDS011;27244;59.940;30.280;2023-03-22T07:19:23;6.35;;;1.92;;
41512;SDS011;27244;59.940;30.280;2023-03-22T07:21:50;3.25;;;1.77;;
41512;SDS011;27244;59.940;30.280;2023-03-22T07:24:19;8.95;;;1.73;;
41512;SDS011;27244;59.940;30.280;2023-03-22T07:26:46;4.78;;;1.65;;
41512;SDS011;27244;59.940;30.280;2023-03-22T07:29:17;4.70;;;2.10;;
41512;SDS011;27244;59.940;30.280;2023-03-22T07:31:45;5.07;;;1.45;;
41512;SDS011;27244;59.940;30.280;2023-03-22T07:34:23;4.03;;;1.80;;
41512;SDS011;27244;59.940;30.280;2023-03-22T07:37:03;3.33;;;1.35;;
41512;SDS011;27244;59.940;30.280;2023-03-22T07:39:32;2.65;;;1.67;;
41512;SDS011;27244;59.940;30.280;2023-03-22T07:41:59;2.85;;;1.15;;
41512;SDS011;27244;59.940;30.280;2023-03-22T07:45:04;3.83;;;1.50;;
41512;SDS011;27244;59.940;30.280;2023-03-22T07:47:41;5.57;;;1.42;;
41512;SDS011;27244;59.940;30.280;2023-03-22T07:50:17;2.65;;;1.50;;
41512;SDS011;27244;59.940;30.280;2023-03-22T07:52:48;4.32;;;1.77;;
41512;SDS011;27244;59.940;30.280;2023-03-22T07:55:16;3.42;;;1.90;;
41512;SDS011;27244;59.940;30.280;2023-03-22T07:57:44;3.30;;;1.80;;
41512;SDS011;27244;59.940;30.280;2023-03-22T08:00:12;3.53;;;1.83;;
41512;SDS011;27244;59.940;30.280;2023-03-22T08:02:50;5.28;;;1.92;;
41512;SDS011;27244;59.940;30.280;2023-03-22T08:05:43;3.38;;;1.50;;
41512;SDS011;27244;59.940;30.280;2023-03-22T08:08:13;2.78;;;1.60;;
41512;SDS011;27244;59.940;30.280;2023-03-22T08:10:44;3.58;;;1.75;;
41512;SDS011;27244;59.940;30.280;2023-03-22T08:13:14;3.03;;;1.58;;
41512;SDS011;27244;59.940;30.280;2023-03-22T08:15:41;4.80;;;2.10;;
41512;SDS011;27244;59.940;30.280;2023-03-22T08:18:09;2.72;;;1.60;;
41512;SDS011;27244;59.940;30.280;2023-03-22T08:20:38;2.03;;;1.40;;
41512;SDS011;27244;59.940;30.280;2023-03-22T08:23:10;2.63;;;1.50;;
41512;SDS011;27244;59.940;30.280;2023-03-22T08:26:01;2.45;;;1.38;;
41512;SDS011;27244;59.940;30.280;2023-03-22T08:28:30;2.78;;;1.70;;
41512;SDS011;27244;59.940;30.280;2023-03-22T08:30:58;8.05;;;2.10;;
41512;SDS011;27244;59.940;30.280;2023-03-22T08:33:24;3.03;;;1.83;;
41512;SDS011;27244;59.940;30.280;2023-03-22T08:36:02;3.10;;;1.92;;
41512;SDS011;27244;59.940;30.280;2023-03-22T08:38:30;2.78;;;2.08;;
41512;SDS011;27244;59.940;30.280;2023-03-22T08:40:57;3.30;;;1.80;;
41512;SDS011;27244;59.940;30.280;2023-03-22T08:43:26;5.50;;;2.63;;
41512;SDS011;27244;59.940;30.280;2023-03-22T08:45:53;3.65;;;1.90;;
41512;SDS011;27244;59.940;30.280;2023-03-22T08:48:20;3.05;;;1.80;;
41512;SDS011;27244;59.940;30.280;2023-03-22T08:51:01;3.28;;;1.90;;
41512;SDS011;27244;59.940;30.280;2023-03-22T08:53:41;2.92;;;2.03;;
41512;SDS011;27244;59.940;30.280;2023-03-22T08:56:37;1.85;;;1.60;;
41512;SDS011;27244;59.940;30.280;2023-03-22T08:59:36;2.35;;;1.90;;
41512;SDS011;27244;59.940;30.280;2023-03-22T09:02:27;2.42;;;1.52;;
41512;SDS011;27244;59.940;30.280;2023-03-22T09:04:55;2.40;;;1.50;;
41512;SDS011;27244;59.940;30.280;2023-03-22T09:07:23;2.33;;;1.60;;
41512;SDS011;27244;59.940;30.280;2023-03-22T09:10:14;1.95;;;1.70;;
41512;SDS011;27244;59.940;30.280;2023-03-22T09:12:44;2.70;;;2.05;;
41512;SDS011;27244;59.940;30.280;2023-03-22T09:15:13;2.22;;;1.52;;
41512;SDS011;27244;59.940;30.280;2023-03-22T09:17:44;3.30;;;1.65;;
41512;SDS011;27244;59.940;30.280;2023-03-22T09:20:11;1.85;;;1.52;;
41512;SDS011;27244;59.940;30.280;2023-03-22T09:22:41;2.67;;;1.80;;
41512;SDS011;27244;59.940;30.280;2023-03-22T09:25:10;1.92;;;1.63;;
41512;SDS011;27244;59.940;30.280;2023-03-22T09:27:37;2.80;;;1.80;;
41512;SDS011;27244;59.940;30.280;2023-03-22T09:30:06;3.47;;;2.10;;
41512;SDS011;27244;59.940;30.280;2023-03-22T09:32:35;1.98;;;1.77;;
41512;SDS011;27244;59.940;30.280;2023-03-22T09:35:03;2.80;;;1.83;;
41512;SDS011;27244;59.940;30.280;2023-03-22T09:37:39;1.88;;;1.65;;
41512;SDS011;27244;59.940;30.280;2023-03-22T09:40:06;5.13;;;2.08;;
41512;SDS011;27244;59.940;30.280;2023-03-22T09:42:35;2.72;;;2.00;;
41512;SDS011;27244;59.940;30.280;2023-03-22T09:45:09;2.20;;;1.67;;
41512;SDS011;27244;59.940;30.280;2023-03-22T09:47:43;2.47;;;1.67;;
41512;SDS011;27244;59.940;30.280;2023-03-22T09:50:14;2.80;;;1.70;;
41512;SDS011;27244;59.940;30.280;2023-03-22T09:52:45;2.70;;;1.98;;
41512;SDS011;27244;59.940;30.280;2023-03-22T09:55:16;2.80;;;1.88;;
41512;SDS011;27244;59.940;30.280;2023-03-22T09:57:48;2.67;;;1.70;;
41512;SDS011;27244;59.940;30.280;2023-03-22T10:00:26;2.10;;;1.60;;
41512;SDS011;27244;59.940;30.280;2023-03-22T10:03:07;1.58;;;1.48;;
41512;SDS011;27244;59.940;30.280;2023-03-22T10:05:44;2.58;;;1.90;;
41512;SDS011;27244;59.940;30.280;2023-03-22T10:11:18;2.20;;;1.45;;
41512;SDS011;27244;59.940;30.280;2023-03-22T10:13:54;2.78;;;1.90;;
41512;SDS011;27244;59.940;30.280;2023-03-22T10:16:26;1.70;;;1.60;;
41512;SDS011;27244;59.940;30.280;2023-03-22T10:19:02;1.77;;;1.50;;
41512;SDS011;27244;59.940;30.280;2023-03-22T10:21:33;1.80;;;1.38;;
41512;SDS011;27244;59.940;30.280;2023-03-22T10:24:02;1.70;;;1.60;;
41512;SDS011;27244;59.940;30.280;2023-03-22T10:26:37;1.92;;;1.70;;
41512;SDS011;27244;59.940;30.280;2023-03-22T10:29:09;2.20;;;1.73;;
41512;SDS011;27244;59.940;30.280;2023-03-22T10:31:41;2.75;;;1.77;;
41512;SDS011;27244;59.940;30.280;2023-03-22T10:34:13;4.88;;;1.67;;
41512;SDS011;27244;59.940;30.280;2023-03-22T10:36:45;3.20;;;1.75;;
41512;SDS011;27244;59.940;30.280;2023-03-22T10:39:18;3.25;;;1.50;;
41512;SDS011;27244;59.940;30.280;2023-03-22T10:41:52;2.53;;;1.30;;
41512;SDS011;27244;59.940;30.280;2023-03-22T10:44:21;1.95;;;1.60;;
41512;SDS011;27244;59.940;30.280;2023-03-22T10:46:51;1.60;;;1.23;;
41512;SDS011;27244;59.940;30.280;2023-03-22T10:49:23;1.52;;;1.42;;
41512;SDS011;27244;59.940;30.280;2023-03-22T10:51:56;2.30;;;1.52;;
41512;SDS011;27244;59.940;30.280;2023-03-22T10:54:27;2.17;;;1.52;;
41512;SDS011;27244;59.940;30.280;2023-03-22T10:56:55;4.65;;;1.85;;
41512;SDS011;27244;59.940;30.280;2023-03-22T10:59:41;5.13;;;2.13;;
41512;SDS011;27244;59.940;30.280;2023-03-22T11:02:18;2.38;;;1.60;;
41512;SDS011;27244;59.940;30.280;2023-03-22T11:04:49;2.50;;;1.80;;
41512;SDS011;27244;59.940;30.280;2023-03-22T11:07:25;1.80;;;1.50;;
41512;SDS011;27244;59.940;30.280;2023-03-22T11:09:57;2.55;;;1.70;;
41512;SDS011;27244;59.940;30.280;2023-03-22T11:12:25;2.75;;;1.65;;
41512;SDS011;27244;59.940;30.280;2023-03-22T11:14:52;1.90;;;1.60;;
41512;SDS011;27244;59.940;30.280;2023-03-22T11:17:21;1.83;;;1.60;;
41512;SDS011;27244;59.940;30.280;2023-03-22T11:19:53;2.22;;;1.65;;
41512;SDS011;27244;59.940;30.280;2023-03-22T11:22:23;1.80;;;1.70;;
41512;SDS011;27244;59.940;30.280;2023-03-22T11:24:56;3.47;;;1.90;;
41512;SDS011;27244;59.940;30.280;2023-03-22T11:27:25;1.98;;;1.65;;
41512;SDS011;27244;59.940;30.280;2023-03-22T11:29:55;2.47;;;2.20;;
41512;SDS011;27244;59.940;30.280;2023-03-22T11:32:25;2.38;;;2.17;;
41512;SDS011;27244;59.940;30.280;2023-03-22T11:35:03;3.70;;;2.60;;
41512;SDS011;27244;59.940;30.280;2023-03-22T11:37:31;3.13;;;2.78;;
41512;SDS011;27244;59.940;30.280;2023-03-22T11:39:58;3.53;;;3.00;;
41512;SDS011;27244;59.940;30.280;2023-03-22T11:42:31;3.08;;;2.67;;
41512;SDS011;27244;59.940;30.280;2023-03-22T11:47:27;3.50;;;3.20;;
41512;SDS011;27244;59.940;30.280;2023-03-22T11:50:03;4.20;;;3.80;;
41512;SDS011;27244;59.940;30.280;2023-03-22T11:52:34;4.30;;;3.88;;
41512;SDS011;27244;59.940;30.280;2023-03-22T11:55:01;4.53;;;4.13;;
41512;SDS011;27244;59.940;30.280;2023-03-22T11:57:30;5.25;;;4.72;;
41512;SDS011;27244;59.940;30.280;2023-03-22T12:00:00;5.40;;;4.90;;
41512;SDS011;27244;59.940;30.280;2023-03-22T12:02:37;5.45;;;4.95;;
41512;SDS011;27244;59.940;30.280;2023-03-22T12:05:13;5.47;;;4.97;;
41512;SDS011;27244;59.940;30.280;2023-03-22T12:07:47;6.00;;;5.40;;
41512;SDS011;27244;59.940;30.280;2023-03-22T12:10:20;6.15;;;4.95;;
41512;SDS011;27244;59.940;30.280;2023-03-22T12:12:54;6.75;;;5.85;;
41512;SDS011;27244;59.940;30.280;2023-03-22T12:15:25;6.10;;;5.50;;
41512;SDS011;27244;59.940;30.280;2023-03-22T12:17:58;6.57;;;5.97;;
41512;SDS011;27244;59.940;30.280;2023-03-22T12:23:00;6.00;;;5.40;;
41512;SDS011;27244;59.940;30.280;2023-03-22T12:25:28;5.53;;;5.03;;
41512;SDS011;27244;59.940;30.280;2023-03-22T12:30:30;5.77;;;5.17;;
41512;SDS011;27244;59.940;30.280;2023-03-22T12:33:05;5.93;;;5.30;;
41512;SDS011;27244;59.940;30.280;2023-03-22T12:35:41;5.30;;;4.80;;
41512;SDS011;27244;59.940;30.280;2023-03-22T12:38:14;5.45;;;4.90;;
41512;SDS011;27244;59.940;30.280;2023-03-22T12:40:52;6.15;;;5.55;;
41512;SDS011;27244;59.940;30.280;2023-03-22T12:43:23;5.50;;;4.97;;
41512;SDS011;27244;59.940;30.280;2023-03-22T12:46:00;5.93;;;5.35;;
41512;SDS011;27244;59.940;30.280;2023-03-22T12:48:32;6.07;;;5.47;;
41512;SDS011;27244;59.940;30.280;2023-03-22T12:51:06;5.65;;;5.05;;
41512;SDS011;27244;59.940;30.280;2023-03-22T12:53:34;5.78;;;5.18;;
41512;SDS011;27244;59.940;30.280;2023-03-22T12:56:07;6.00;;;5.40;;
41512;SDS011;27244;59.940;30.280;2023-03-22T12:58:36;6.45;;;5.65;;
41512;SDS011;27244;59.940;30.280;2023-03-22T13:01:09;6.03;;;5.43;;
41512;SDS011;27244;59.940;30.280;2023-03-22T13:03:46;6.03;;;5.43;;
41512;SDS011;27244;59.940;30.280;2023-03-22T13:06:33;6.72;;;5.97;;
41512;SDS011;27244;59.940;30.280;2023-03-22T13:09:34;7.07;;;6.38;;
41512;SDS011;27244;59.940;30.280;2023-03-22T13:14:57;6.93;;;6.22;;
41512;SDS011;27244;59.940;30.280;2023-03-22T13:17:39;7.50;;;6.80;;
41512;SDS011;27244;59.940;30.280;2023-03-22T13:20:20;8.13;;;6.43;;
41512;SDS011;27244;59.940;30.280;2023-03-22T13:26:01;10.02;;;8.10;;
41512;SDS011;27244;59.940;30.280;2023-03-22T13:28:30;8.40;;;7.45;;
41512;SDS011;27244;59.940;30.280;2023-03-22T13:31:02;8.07;;;7.28;;
41512;SDS011;27244;59.940;30.280;2023-03-22T13:33:30;9.30;;;6.40;;
41512;SDS011;27244;59.940;30.280;2023-03-22T13:35:59;7.13;;;6.50;;
41512;SDS011;27244;59.940;30.280;2023-03-22T13:38:33;7.65;;;6.85;;
41512;SDS011;27244;59.940;30.280;2023-03-22T13:41:04;7.38;;;6.65;;
41512;SDS011;27244;59.940;30.280;2023-03-22T13:43:33;7.57;;;6.88;;
41512;SDS011;27244;59.940;30.280;2023-03-22T13:46:10;7.57;;;6.40;;
41512;SDS011;27244;59.940;30.280;2023-03-22T13:48:54;8.48;;;7.57;;
41512;SDS011;27244;59.940;30.280;2023-03-22T13:51:38;11.02;;;8.02;;
41512;SDS011;27244;59.940;30.280;2023-03-22T13:54:09;9.15;;;7.85;;
41512;SDS011;27244;59.940;30.280;2023-03-22T13:56:48;7.70;;;7.00;;
41512;SDS011;27244;59.940;30.280;2023-03-22T13:59:22;9.30;;;7.60;;
41512;SDS011;27244;59.940;30.280;2023-03-22T14:01:51;9.18;;;8.20;;
41512;SDS011;27244;59.940;30.280;2023-03-22T14:04:22;8.13;;;7.33;;
41512;SDS011;27244;59.940;30.280;2023-03-22T14:06:56;9.23;;;7.95;;
41512;SDS011;27244;59.940;30.280;2023-03-22T14:09:28;8.98;;;7.75;;
41512;SDS011;27244;59.940;30.280;2023-03-22T14:12:02;8.45;;;7.55;;
41512;SDS011;27244;59.940;30.280;2023-03-22T14:14:39;8.80;;;7.55;;
41512;SDS011;27244;59.940;30.280;2023-03-22T14:17:13;8.95;;;8.05;;
41512;SDS011;27244;59.940;30.280;2023-03-22T14:19:46;9.02;;;7.97;;
41512;SDS011;27244;59.940;30.280;2023-03-22T14:22:16;9.93;;;7.70;;
41512;SDS011;27244;59.940;30.280;2023-03-22T14:24:55;9.05;;;7.50;;
41512;SDS011;27244;59.940;30.280;2023-03-22T14:27:25;9.88;;;8.00;;
41512;SDS011;27244;59.940;30.280;2023-03-22T14:29:52;9.07;;;8.07;;
41512;SDS011;27244;59.940;30.280;2023-03-22T14:32:20;8.68;;;7.78;;
41512;SDS011;27244;59.940;30.280;2023-03-22T14:34:56;10.35;;;8.65;;
41512;SDS011;27244;59.940;30.280;2023-03-22T14:37:29;8.88;;;7.97;;
41512;SDS011;27244;59.940;30.280;2023-03-22T14:39:58;9.05;;;8.15;;
41512;SDS011;27244;59.940;30.280;2023-03-22T14:42:26;9.60;;;8.23;;
41512;SDS011;27244;59.940;30.280;2023-03-22T14:44:57;9.50;;;8.05;;
41512;SDS011;27244;59.940;30.280;2023-03-22T14:47:26;10.20;;;8.30;;
41512;SDS011;27244;59.940;30.280;2023-03-22T14:49:58;9.20;;;8.20;;
41512;SDS011;27244;59.940;30.280;2023-03-22T14:52:34;9.07;;;8.05;;
41512;SDS011;27244;59.940;30.280;2023-03-22T14:55:06;8.95;;;8.05;;
41512;SDS011;27244;59.940;30.280;2023-03-22T14:57:36;9.18;;;7.85;;
41512;SDS011;27244;59.940;30.280;2023-03-22T15:00:05;9.40;;;8.38;;
41512;SDS011;27244;59.940;30.280;2023-03-22T15:02:41;9.30;;;8.27;;
41512;SDS011;27244;59.940;30.280;2023-03-22T15:05:12;10.07;;;8.60;;
41512;SDS011;27244;59.940;30.280;2023-03-22T15:07:43;9.57;;;8.10;;
41512;SDS011;27244;59.940;30.280;2023-03-22T15:10:14;8.35;;;7.53;;
41512;SDS011;27244;59.940;30.280;2023-03-22T15:12:43;9.55;;;8.43;;
41512;SDS011;27244;59.940;30.280;2023-03-22T15:15:13;9.82;;;8.60;;
41512;SDS011;27244;59.940;30.280;2023-03-22T15:17:48;10.13;;;9.02;;
41512;SDS011;27244;59.940;30.280;2023-03-22T15:20:26;10.65;;;9.43;;
41512;SDS011;27244;59.940;30.280;2023-03-22T15:22:56;10.38;;;8.35;;
41512;SDS011;27244;59.940;30.280;2023-03-22T15:25:29;10.20;;;8.93;;
41512;SDS011;27244;59.940;30.280;2023-03-22T15:27:58;12.02;;;9.60;;
41512;SDS011;27244;59.940;30.280;2023-03-22T15:30:27;11.52;;;9.73;;
41512;SDS011;27244;59.940;30.280;2023-03-22T15:32:58;11.27;;;9.02;;
41512;SDS011;27244;59.940;30.280;2023-03-22T15:35:29;11.23;;;9.52;;
41512;SDS011;27244;59.940;30.280;2023-03-22T15:37:57;11.85;;;9.77;;
41512;SDS011;27244;59.940;30.280;2023-03-22T15:40:49;10.67;;;9.57;;